sensor_id;sensor_type;location;lat;lon;timestamp;pressure;altitude;pressure_sealevel;temperature;humidity
60345;BME280;46188;52.324;8.032;2023-04-22T00:00:22;99808.50;;;13.26;90.37
60345;BME280;46188;52.324;8.032;2023-04-22T00:02:47;99812.22;;;13.06;94.23
60345;BME280;46188;52.324;8.032;2023-04-22T00:05:12;99807.81;;;13.05;95.18
60345;BME280;46188;52.324;8.032;2023-04-22T00:07:39;99820.34;;;12.86;98.51
60345;BME280;46188;52.324;8.032;2023-04-22T00:10:06;99811.47;;;12.90;98.27
60345;BME280;46188;52.324;8.032;2023-04-22T00:12:31;99815.03;;;12.89;98.18
60345;BME280;46188;52.324;8.032;2023-04-22T00:14:58;99815.31;;;12.52;100.00
60345;BME280;46188;52.324;8.032;2023-04-22T00:17:23;99806.47;;;12.58;100.00
60345;BME280;46188;52.324;8.032;2023-04-22T00:19:48;99807.28;;;12.69;100.00
60345;BME280;46188;52.324;8.032;2023-04-22T00:22:14;99798.44;;;12.70;100.00
60345;BME280;46188;52.324;8.032;2023-04-22T00:24:39;99797.56;;;12.70;100.00
60345;BME280;46188;52.324;8.032;2023-04-22T00:27:04;99795.88;;;12.60;100.00
60345;BME280;46188;52.324;8.032;2023-04-22T00:29:30;99787.03;;;12.64;100.00
60345;BME280;46188;52.324;8.032;2023-04-22T00:31:55;99792.41;;;12.54;100.00
60345;BME280;46188;52.324;8.032;2023-04-22T00:34:20;99795.22;;;12.30;100.00
60345;BME280;46188;52.324;8.032;2023-04-22T00:36:45;99788.25;;;12.18;100.00
60345;BME280;46188;52.324;8.032;2023-04-22T00:39:11;99794.44;;;12.12;100.00
60345;BME280;46188;52.324;8.032;2023-04-22T00:41:38;99800.59;;;12.13;100.00
60345;BME280;46188;52.324;8.032;2023-04-22T00:44:06;99803.34;;;11.97;100.00
60345;BME280;46188;52.324;8.032;2023-04-22T00:46:32;99804.22;;;11.99;100.00
60345;BME280;46188;52.324;8.032;2023-04-22T00:48:58;99812.13;;;11.98;100.00
60345;BME280;46188;52.324;8.032;2023-04-22T00:51:24;99809.50;;;11.96;100.00
60345;BME280;46188;52.324;8.032;2023-04-22T00:53:50;99823.63;;;11.86;100.00
60345;BME280;46188;52.324;8.032;2023-04-22T00:56:16;99826.28;;;11.92;100.00
60345;BME280;46188;52.324;8.032;2023-04-22T00:58:41;99826.25;;;11.97;100.00
60345;BME280;46188;52.324;8.032;2023-04-22T01:01:07;99831.47;;;12.06;100.00
60345;BME280;46188;52.324;8.032;2023-04-22T01:03:35;99819.09;;;12.11;100.00
60345;BME280;46188;52.324;8.032;2023-04-22T01:06:02;99807.63;;;12.17;100.00
60345;BME280;46188;52.324;8.032;2023-04-22T01:08:27;99809.38;;;12.19;100.00
60345;BME280;46188;52.324;8.032;2023-04-22T01:10:56;99788.25;;;12.18;100.00
60345;BME280;46188;52.324;8.032;2023-04-22T01:13:21;99774.16;;;12.16;100.00
60345;BME280;46188;52.324;8.032;2023-04-22T01:15:49;99767.19;;;12.09;100.00
60345;BME280;46188;52.324;8.032;2023-04-22T01:18:15;99753.16;;;12.00;100.00
60345;BME280;46188;52.324;8.032;2023-04-22T01:20:41;99748.75;;;11.99;100.00
60345;BME280;46188;52.324;8.032;2023-04-22T01:23:15;99746.22;;;11.73;100.00
60345;BME280;46188;52.324;8.032;2023-04-22T01:25:42;99748.94;;;11.61;100.00
60345;BME280;46188;52.324;8.032;2023-04-22T01:28:07;99751.63;;;11.49;100.00
60345;BME280;46188;52.324;8.032;2023-04-22T01:30:33;99756.09;;;11.26;100.00
60345;BME280;46188;52.324;8.032;2023-04-22T01:32:58;99765.78;;;11.18;100.00
60345;BME280;46188;52.324;8.032;2023-04-22T01:35:24;99756.09;;;11.22;100.00
60345;BME280;46188;52.324;8.032;2023-04-22T01:37:50;99761.41;;;11.19;100.00
60345;BME280;46188;52.324;8.032;2023-04-22T01:40:15;99759.69;;;11.04;100.00
60345;BME280;46188;52.324;8.032;2023-04-22T01:42:44;99767.63;;;10.93;100.00
60345;BME280;46188;52.324;8.032;2023-04-22T01:45:09;99768.50;;;10.90;100.00
60345;BME280;46188;52.324;8.032;2023-04-22T01:47:37;99764.13;;;10.83;100.00
60345;BME280;46188;52.324;8.032;2023-04-22T01:50:02;99765.88;;;10.81;100.00
60345;BME280;46188;52.324;8.032;2023-04-22T01:52:28;99760.63;;;10.63;100.00
60345;BME280;46188;52.324;8.032;2023-04-22T01:54:53;99758.88;;;10.56;100.00
60345;BME280;46188;52.324;8.032;2023-04-22T01:57:19;99765.03;;;10.56;100.00
60345;BME280;46188;52.324;8.032;2023-04-22T01:59:44;99767.69;;;10.59;100.00
60345;BME280;46188;52.324;8.032;2023-04-22T02:02:09;99767.66;;;10.42;100.00
60345;BME280;46188;52.324;8.032;2023-04-22T02:04:34;99767.66;;;10.34;100.00
60345;BME280;46188;52.324;8.032;2023-04-22T02:07:00;99758.88;;;10.34;100.00
60345;BME280;46188;52.324;8.032;2023-04-22T02:09:25;99765.84;;;10.30;100.00
60345;BME280;46188;52.324;8.032;2023-04-22T02:11:50;99762.34;;;10.27;100.00
60345;BME280;46188;52.324;8.032;2023-04-22T02:14:16;99757.97;;;10.21;100.00
60345;BME280;46188;52.324;8.032;2023-04-22T02:16:41;99762.34;;;10.10;100.00
60345;BME280;46188;52.324;8.032;2023-04-22T02:19:06;99761.44;;;10.14;100.00
60345;BME280;46188;52.324;8.032;2023-04-22T02:21:31;99762.34;;;10.11;100.00
60345;BME280;46188;52.324;8.032;2023-04-22T02:23:57;99751.81;;;10.10;100.00
60345;BME280;46188;52.324;8.032;2023-04-22T02:26:22;99750.91;;;10.11;100.00
60345;BME280;46188;52.324;8.032;2023-04-22T02:28:49;99752.66;;;10.03;100.00
60345;BME280;46188;52.324;8.032;2023-04-22T02:31:14;99753.53;;;9.97;100.00
60345;BME280;46188;52.324;8.032;2023-04-22T02:33:39;99754.38;;;9.94;100.00
60345;BME280;46188;52.324;8.032;2023-04-22T02:36:05;99762.31;;;9.88;100.00
60345;BME280;46188;52.324;8.032;2023-04-22T02:38:30;99753.50;;;9.88;100.00
60345;BME280;46188;52.324;8.032;2023-04-22T02:40:55;99749.09;;;9.79;100.00
60345;BME280;46188;52.324;8.032;2023-04-22T02:43:20;99748.19;;;9.66;100.00
60345;BME280;46188;52.324;8.032;2023-04-22T02:45:46;99748.19;;;9.66;100.00
60345;BME280;46188;52.324;8.032;2023-04-22T02:48:11;99753.44;;;9.66;100.00
60345;BME280;46188;52.324;8.032;2023-04-22T02:50:36;99749.94;;;9.63;100.00
60345;BME280;46188;52.324;8.032;2023-04-22T02:53:01;99750.78;;;9.63;100.00
60345;BME280;46188;52.324;8.032;2023-04-22T02:55:27;99750.81;;;9.57;100.00
60345;BME280;46188;52.324;8.032;2023-04-22T02:57:52;99745.53;;;9.63;100.00
60345;BME280;46188;52.324;8.032;2023-04-22T03:00:17;99748.19;;;9.69;100.00
60345;BME280;46188;52.324;8.032;2023-04-22T03:02:43;99741.19;;;9.73;100.00
60345;BME280;46188;52.324;8.032;2023-04-22T03:05:08;99742.94;;;9.71;100.00
60345;BME280;46188;52.324;8.032;2023-04-22T03:07:34;99744.72;;;9.72;100.00
60345;BME280;46188;52.324;8.032;2023-04-22T03:09:59;99746.44;;;9.71;100.00
60345;BME280;46188;52.324;8.032;2023-04-22T03:12:24;99749.09;;;9.76;100.00
60345;BME280;46188;52.324;8.032;2023-04-22T03:14:50;99746.47;;;9.79;100.00
60345;BME280;46188;52.324;8.032;2023-04-22T03:17:15;99743.84;;;9.82;100.00
60345;BME280;46188;52.324;8.032;2023-04-22T03:19:40;99743.00;;;9.85;100.00
60345;BME280;46188;52.324;8.032;2023-04-22T03:22:05;99737.72;;;9.85;100.00
60345;BME280;46188;52.324;8.032;2023-04-22T03:24:31;99737.72;;;9.91;100.00
60345;BME280;46188;52.324;8.032;2023-04-22T03:26:56;99741.22;;;9.93;100.00
60345;BME280;46188;52.324;8.032;2023-04-22T03:29:21;99738.59;;;9.94;100.00
60345;BME280;46188;52.324;8.032;2023-04-22T03:31:46;99740.34;;;9.91;100.00
60345;BME280;46188;52.324;8.032;2023-04-22T03:34:11;99735.06;;;9.89;100.00
60345;BME280;46188;52.324;8.032;2023-04-22T03:36:37;99734.19;;;9.84;100.00
60345;BME280;46188;52.324;8.032;2023-04-22T03:39:02;99731.56;;;9.87;100.00
60345;BME280;46188;52.324;8.032;2023-04-22T03:41:28;99724.56;;;9.95;100.00
60345;BME280;46188;52.324;8.032;2023-04-22T03:43:53;99732.47;;;9.97;100.00
60345;BME280;46188;52.324;8.032;2023-04-22T03:46:18;99729.84;;;9.97;100.00
60345;BME280;46188;52.324;8.032;2023-04-22T03:48:43;99728.97;;;9.96;100.00
60345;BME280;46188;52.324;8.032;2023-04-22T03:51:08;99735.09;;;9.95;100.00
60345;BME280;46188;52.324;8.032;2023-04-22T03:53:34;99726.31;;;9.93;100.00
60345;BME280;46188;52.324;8.032;2023-04-22T03:55:59;99724.53;;;9.86;100.00
60345;BME280;46188;52.324;8.032;2023-04-22T03:58:24;99721.91;;;9.89;100.00
60345;BME280;46188;52.324;8.032;2023-04-22T04:00:50;99722.78;;;9.93;100.00
60345;BME280;46188;52.324;8.032;2023-04-22T04:03:15;99719.28;;;9.92;100.00
60345;BME280;46188;52.324;8.032;2023-04-22T04:05:40;99722.81;;;10.07;100.00
60345;BME280;46188;52.324;8.032;2023-04-22T04:08:05;99718.41;;;10.03;100.00
60345;BME280;46188;52.324;8.032;2023-04-22T04:10:31;99716.66;;;10.09;100.00
60345;BME280;46188;52.324;8.032;2023-04-22T04:12:56;99712.31;;;10.10;100.00
60345;BME280;46188;52.324;8.032;2023-04-22T04:15:22;99726.31;;;10.06;100.00
60345;BME280;46188;52.324;8.032;2023-04-22T04:17:47;99719.28;;;10.08;100.00
60345;BME280;46188;52.324;8.032;2023-04-22T04:20:13;99716.69;;;10.03;100.00
60345;BME280;46188;52.324;8.032;2023-04-22T04:22:39;99717.53;;;10.01;100.00
60345;BME280;46188;52.324;8.032;2023-04-22T04:25:05;99715.81;;;10.00;100.00
60345;BME280;46188;52.324;8.032;2023-04-22T04:27:30;99722.81;;;10.04;100.00
60345;BME280;46188;52.324;8.032;2023-04-22T04:29:56;99719.31;;;10.03;100.00
60345;BME280;46188;52.324;8.032;2023-04-22T04:32:22;99719.31;;;10.05;100.00
60345;BME280;46188;52.324;8.032;2023-04-22T04:34:47;99718.44;;;10.07;100.00
60345;BME280;46188;52.324;8.032;2023-04-22T04:37:13;99713.16;;;10.09;100.00
60345;BME280;46188;52.324;8.032;2023-04-22T04:39:38;99717.56;;;10.11;100.00
60345;BME280;46188;52.324;8.032;2023-04-22T04:42:03;99717.59;;;10.14;100.00
60345;BME280;46188;52.324;8.032;2023-04-22T04:44:29;99715.81;;;10.15;100.00
60345;BME280;46188;52.324;8.032;2023-04-22T04:46:56;99714.03;;;10.09;100.00
60345;BME280;46188;52.324;8.032;2023-04-22T04:49:22;99707.03;;;10.11;100.00
60345;BME280;46188;52.324;8.032;2023-04-22T04:51:47;99716.69;;;10.20;100.00
60345;BME280;46188;52.324;8.032;2023-04-22T04:54:13;99707.91;;;10.12;100.00
60345;BME280;46188;52.324;8.032;2023-04-22T04:56:38;99717.53;;;10.16;100.00
60345;BME280;46188;52.324;8.032;2023-04-22T04:59:03;99709.66;;;10.21;100.00
60345;BME280;46188;52.324;8.032;2023-04-22T05:01:28;99714.94;;;10.13;100.00
60345;BME280;46188;52.324;8.032;2023-04-22T05:03:54;99714.03;;;9.98;100.00
60345;BME280;46188;52.324;8.032;2023-04-22T05:06:19;99718.44;;;10.15;100.00
60345;BME280;46188;52.324;8.032;2023-04-22T05:08:44;99726.31;;;10.06;100.00
60345;BME280;46188;52.324;8.032;2023-04-22T05:11:10;99720.22;;;10.14;100.00
60345;BME280;46188;52.324;8.032;2023-04-22T05:13:35;99723.72;;;10.15;100.00
60345;BME280;46188;52.324;8.032;2023-04-22T05:16:00;99723.72;;;10.16;100.00
60345;BME280;46188;52.324;8.032;2023-04-22T05:18:25;99713.22;;;10.32;100.00
60345;BME280;46188;52.324;8.032;2023-04-22T05:20:51;99707.91;;;10.46;100.00
60345;BME280;46188;52.324;8.032;2023-04-22T05:23:16;99715.81;;;10.55;100.00
60345;BME280;46188;52.324;8.032;2023-04-22T05:25:41;99707.94;;;10.61;100.00
60345;BME280;46188;52.324;8.032;2023-04-22T05:28:07;99712.31;;;10.59;100.00
60345;BME280;46188;52.324;8.032;2023-04-22T05:30:32;99708.78;;;10.60;100.00
60345;BME280;46188;52.324;8.032;2023-04-22T05:32:57;99713.16;;;10.69;100.00
60345;BME280;46188;52.324;8.032;2023-04-22T05:35:22;99699.97;;;10.77;100.00
60345;BME280;46188;52.324;8.032;2023-04-22T05:37:48;99705.25;;;10.83;100.00
60345;BME280;46188;52.324;8.032;2023-04-22T05:40:13;99703.47;;;10.86;100.00
60345;BME280;46188;52.324;8.032;2023-04-22T05:42:38;99699.94;;;10.94;100.00
60345;BME280;46188;52.324;8.032;2023-04-22T05:45:04;99698.19;;;10.97;100.00
60345;BME280;46188;52.324;8.032;2023-04-22T05:47:29;99699.91;;;11.04;100.00
60345;BME280;46188;52.324;8.032;2023-04-22T05:49:54;99708.69;;;11.11;100.00
60345;BME280;46188;52.324;8.032;2023-04-22T05:52:20;99707.75;;;11.20;100.00
60345;BME280;46188;52.324;8.032;2023-04-22T05:54:45;99705.97;;;11.26;100.00
60345;BME280;46188;52.324;8.032;2023-04-22T05:57:10;99704.25;;;11.21;100.00
60345;BME280;46188;52.324;8.032;2023-04-22T05:59:36;99712.09;;;11.30;100.00
60345;BME280;46188;52.324;8.032;2023-04-22T06:02:01;99715.59;;;11.35;100.00
60345;BME280;46188;52.324;8.032;2023-04-22T06:04:27;99709.44;;;11.39;100.00
60345;BME280;46188;52.324;8.032;2023-04-22T06:06:52;99713.78;;;11.51;100.00
60345;BME280;46188;52.324;8.032;2023-04-22T06:09:18;99715.47;;;11.60;100.00
60345;BME280;46188;52.324;8.032;2023-04-22T06:11:43;99717.25;;;11.64;100.00
60345;BME280;46188;52.324;8.032;2023-04-22T06:14:08;99714.50;;;11.76;100.00
60345;BME280;46188;52.324;8.032;2023-04-22T06:16:34;99705.69;;;11.82;100.00
60345;BME280;46188;52.324;8.032;2023-04-22T06:18:59;99709.13;;;11.98;100.00
60345;BME280;46188;52.324;8.032;2023-04-22T06:21:24;99714.34;;;12.09;100.00
60345;BME280;46188;52.324;8.032;2023-04-22T06:23:50;99709.03;;;12.15;100.00
60345;BME280;46188;52.324;8.032;2023-04-22T06:26:16;99704.59;;;12.18;100.00
60345;BME280;46188;52.324;8.032;2023-04-22T06:28:41;99700.09;;;12.28;100.00
60345;BME280;46188;52.324;8.032;2023-04-22T06:31:06;99693.88;;;12.34;100.00
60345;BME280;46188;52.324;8.032;2023-04-22T06:33:31;99693.78;;;12.46;100.00
60345;BME280;46188;52.324;8.032;2023-04-22T06:35:57;99696.31;;;12.55;100.00
60345;BME280;46188;52.324;8.032;2023-04-22T06:38:22;99688.38;;;12.59;100.00
60345;BME280;46188;52.324;8.032;2023-04-22T06:40:47;99693.50;;;12.71;100.00
60345;BME280;46188;52.324;8.032;2023-04-22T06:43:13;99696.06;;;12.83;100.00
60345;BME280;46188;52.324;8.032;2023-04-22T06:45:38;99687.16;;;12.89;100.00
60345;BME280;46188;52.324;8.032;2023-04-22T06:48:03;99693.34;;;12.89;100.00
60345;BME280;46188;52.324;8.032;2023-04-22T06:50:28;99691.53;;;12.95;100.00
60345;BME280;46188;52.324;8.032;2023-04-22T06:52:54;99687.97;;;12.96;100.00
60345;BME280;46188;52.324;8.032;2023-04-22T06:55:19;99690.50;;;13.06;100.00
60345;BME280;46188;52.324;8.032;2023-04-22T06:57:45;99692.16;;;13.15;100.00
60345;BME280;46188;52.324;8.032;2023-04-22T07:00:11;99686.84;;;13.17;100.00
60345;BME280;46188;52.324;8.032;2023-04-22T07:02:36;99683.19;;;13.25;100.00
60345;BME280;46188;52.324;8.032;2023-04-22T07:05:02;99685.84;;;13.25;100.00
60345;BME280;46188;52.324;8.032;2023-04-22T07:07:27;99691.91;;;13.38;100.00
60345;BME280;46188;52.324;8.032;2023-04-22T07:09:52;99688.28;;;13.45;100.00
60345;BME280;46188;52.324;8.032;2023-04-22T07:12:17;99691.78;;;13.47;100.00
60345;BME280;46188;52.324;8.032;2023-04-22T07:14:44;99687.53;;;13.36;100.00
60345;BME280;46188;52.324;8.032;2023-04-22T07:17:10;99691.88;;;13.40;100.00
60345;BME280;46188;52.324;8.032;2023-04-22T07:19:35;99690.94;;;13.45;100.00
60345;BME280;46188;52.324;8.032;2023-04-22T07:22:01;99684.50;;;13.62;100.00
60345;BME280;46188;52.324;8.032;2023-04-22T07:24:27;99680.06;;;13.67;100.00
60345;BME280;46188;52.324;8.032;2023-04-22T07:26:53;99677.28;;;13.73;100.00
60345;BME280;46188;52.324;8.032;2023-04-22T07:29:18;99684.34;;;13.76;99.51
60345;BME280;46188;52.324;8.032;2023-04-22T07:31:43;99680.75;;;13.77;98.69
60345;BME280;46188;52.324;8.032;2023-04-22T07:34:08;99685.69;;;14.01;98.62
60345;BME280;46188;52.324;8.032;2023-04-22T07:36:35;99682.19;;;14.01;98.41
60345;BME280;46188;52.324;8.032;2023-04-22T07:39:00;99680.28;;;14.09;97.37
60345;BME280;46188;52.324;8.032;2023-04-22T07:41:25;99689.81;;;14.21;96.57
60345;BME280;46188;52.324;8.032;2023-04-22T07:43:51;99683.44;;;14.31;95.85
60345;BME280;46188;52.324;8.032;2023-04-22T07:46:16;99689.38;;;14.47;94.35
60345;BME280;46188;52.324;8.032;2023-04-22T07:48:41;99679.56;;;14.52;94.05
60345;BME280;46188;52.324;8.032;2023-04-22T07:51:07;99685.97;;;14.90;91.87
60345;BME280;46188;52.324;8.032;2023-04-22T07:53:33;99688.16;;;15.13;90.36
60345;BME280;46188;52.324;8.032;2023-04-22T07:56:00;99677.44;;;15.18;88.95
60345;BME280;46188;52.324;8.032;2023-04-22T07:58:25;99680.84;;;15.25;88.22
60345;BME280;46188;52.324;8.032;2023-04-22T08:00:51;99682.16;;;15.47;87.48
60345;BME280;46188;52.324;8.032;2023-04-22T08:03:16;99674.56;;;15.69;86.96
60345;BME280;46188;52.324;8.032;2023-04-22T08:05:41;99664.63;;;15.79;85.28
60345;BME280;46188;52.324;8.032;2023-04-22T08:08:06;99675.03;;;15.89;84.98
60345;BME280;46188;52.324;8.032;2023-04-22T08:10:32;99679.44;;;15.90;84.21
60345;BME280;46188;52.324;8.032;2023-04-22T08:12:57;99673.47;;;15.80;83.92
60345;BME280;46188;52.324;8.032;2023-04-22T08:15:22;99681.34;;;15.84;83.89
60345;BME280;46188;52.324;8.032;2023-04-22T08:17:48;99679.66;;;15.80;83.36
60345;BME280;46188;52.324;8.032;2023-04-22T08:20:13;99674.06;;;15.93;82.51
60345;BME280;46188;52.324;8.032;2023-04-22T08:22:39;99679.69;;;16.16;81.74
60345;BME280;46188;52.324;8.032;2023-04-22T08:25:07;99674.16;;;16.26;81.88
60345;BME280;46188;52.324;8.032;2023-04-22T08:27:33;99679.91;;;16.43;81.22
60345;BME280;46188;52.324;8.032;2023-04-22T08:29:58;99683.25;;;16.51;81.23
60345;BME280;46188;52.324;8.032;2023-04-22T08:32:24;99678.09;;;16.45;80.00
60345;BME280;46188;52.324;8.032;2023-04-22T08:34:50;99667.34;;;16.48;79.19
60345;BME280;46188;52.324;8.032;2023-04-22T08:37:15;99667.38;;;16.81;78.36
60345;BME280;46188;52.324;8.032;2023-04-22T08:39:40;99656.81;;;17.11;76.84
60345;BME280;46188;52.324;8.032;2023-04-22T08:42:06;99661.75;;;17.25;75.69
60345;BME280;46188;52.324;8.032;2023-04-22T08:44:33;99672.97;;;17.36;74.74
60345;BME280;46188;52.324;8.032;2023-04-22T08:46:59;99662.44;;;17.00;75.68
60345;BME280;46188;52.324;8.032;2023-04-22T08:49:25;99663.06;;;17.10;75.81
60345;BME280;46188;52.324;8.032;2023-04-22T08:51:52;99660.84;;;17.54;74.39
60345;BME280;46188;52.324;8.032;2023-04-22T08:54:18;99655.53;;;17.82;73.20
60345;BME280;46188;52.324;8.032;2023-04-22T08:56:44;99654.16;;;17.41;71.35
60345;BME280;46188;52.324;8.032;2023-04-22T08:59:10;99647.81;;;17.15;72.18
60345;BME280;46188;52.324;8.032;2023-04-22T09:01:37;99656.47;;;17.23;71.62
60345;BME280;46188;52.324;8.032;2023-04-22T09:04:04;99653.50;;;17.32;71.38
60345;BME280;46188;52.324;8.032;2023-04-22T09:06:31;99641.09;;;17.91;69.53
60345;BME280;46188;52.324;8.032;2023-04-22T09:08:57;99639.16;;;18.48;67.65
60345;BME280;46188;52.324;8.032;2023-04-22T09:11:25;99640.69;;;18.80;67.06
60345;BME280;46188;52.324;8.032;2023-04-22T09:13:53;99636.31;;;18.53;67.63
60345;BME280;46188;52.324;8.032;2023-04-22T09:16:18;99630.63;;;18.63;67.12
60345;BME280;46188;52.324;8.032;2023-04-22T09:18:43;99625.09;;;18.68;65.76
60345;BME280;46188;52.324;8.032;2023-04-22T09:21:12;99629.56;;;18.93;64.25
60345;BME280;46188;52.324;8.032;2023-04-22T09:23:51;99621.34;;;18.99;60.20
60345;BME280;46188;52.324;8.032;2023-04-22T09:26:23;99620.59;;;19.19;58.77
60345;BME280;46188;52.324;8.032;2023-04-22T09:28:52;99615.91;;;19.48;58.79
60345;BME280;46188;52.324;8.032;2023-04-22T09:31:18;99618.44;;;19.75;59.25
60345;BME280;46188;52.324;8.032;2023-04-22T09:33:49;99622.09;;;19.72;58.47
60345;BME280;46188;52.324;8.032;2023-04-22T09:36:15;99617.47;;;19.77;58.39
60345;BME280;46188;52.324;8.032;2023-04-22T09:38:50;99613.47;;;19.87;59.01
60345;BME280;46188;52.324;8.032;2023-04-22T09:41:15;99616.03;;;19.90;58.21
60345;BME280;46188;52.324;8.032;2023-04-22T09:43:41;99613.16;;;19.73;56.87
60345;BME280;46188;52.324;8.032;2023-04-22T09:46:08;99622.09;;;19.72;57.82
60345;BME280;46188;52.324;8.032;2023-04-22T09:48:41;99613.47;;;19.87;57.73
60345;BME280;46188;52.324;8.032;2023-04-22T09:51:13;99609.78;;;20.12;56.81
60345;BME280;46188;52.324;8.032;2023-04-22T09:53:40;99608.31;;;20.25;54.82
60345;BME280;46188;52.324;8.032;2023-04-22T09:56:05;99614.97;;;20.37;56.36
60345;BME280;46188;52.324;8.032;2023-04-22T09:58:30;99600.56;;;20.40;56.33
60345;BME280;46188;52.324;8.032;2023-04-22T10:00:57;99614.34;;;20.31;55.01
60345;BME280;46188;52.324;8.032;2023-04-22T10:03:23;99606.72;;;20.62;54.24
60345;BME280;46188;52.324;8.032;2023-04-22T10:05:48;99599.72;;;20.80;54.18
60345;BME280;46188;52.324;8.032;2023-04-22T10:08:15;99593.19;;;20.86;54.13
60345;BME280;46188;52.324;8.032;2023-04-22T10:10:41;99585.50;;;20.58;55.46
60345;BME280;46188;52.324;8.032;2023-04-22T10:13:07;99580.44;;;20.31;55.20
60345;BME280;46188;52.324;8.032;2023-04-22T10:15:41;99584.59;;;20.59;54.74
60345;BME280;46188;52.324;8.032;2023-04-22T10:18:09;99577.53;;;20.77;54.02
60345;BME280;46188;52.324;8.032;2023-04-22T10:20:37;99565.69;;;21.01;53.73
60345;BME280;46188;52.324;8.032;2023-04-22T10:23:04;99568.56;;;20.78;54.66
60345;BME280;46188;52.324;8.032;2023-04-22T10:25:30;99575.00;;;20.53;54.71
60345;BME280;46188;52.324;8.032;2023-04-22T10:28:04;99561.22;;;20.42;54.47
60345;BME280;46188;52.324;8.032;2023-04-22T10:30:34;99562.28;;;20.58;52.82
60345;BME280;46188;52.324;8.032;2023-04-22T10:36:06;99557.34;;;20.28;54.03
60345;BME280;46188;52.324;8.032;2023-04-22T10:38:39;99556.88;;;20.39;54.94
60345;BME280;46188;52.324;8.032;2023-04-22T10:41:05;99545.16;;;20.42;55.30
60345;BME280;46188;52.324;8.032;2023-04-22T10:43:41;99550.56;;;20.61;54.13
60345;BME280;46188;52.324;8.032;2023-04-22T10:46:06;99539.94;;;20.99;53.47
60345;BME280;46188;52.324;8.032;2023-04-22T10:48:50;99543.84;;;21.11;52.85
60345;BME280;46188;52.324;8.032;2023-04-22T10:51:37;99540.13;;;21.32;53.47
60345;BME280;46188;52.324;8.032;2023-04-22T10:54:03;99546.13;;;21.37;53.57
60345;BME280;46188;52.324;8.032;2023-04-22T10:56:28;99546.31;;;21.15;53.18
60345;BME280;46188;52.324;8.032;2023-04-22T10:58:57;99532.97;;;21.14;52.53
60345;BME280;46188;52.324;8.032;2023-04-22T11:01:22;99542.09;;;21.10;52.63
60345;BME280;46188;52.324;8.032;2023-04-22T11:03:47;99538.19;;;21.17;53.03
60345;BME280;46188;52.324;8.032;2023-04-22T11:06:15;99536.59;;;21.13;52.07
60345;BME280;46188;52.324;8.032;2023-04-22T11:08:45;99526.16;;;21.07;53.75
60345;BME280;46188;52.324;8.032;2023-04-22T11:11:11;99525.31;;;20.87;53.92
60345;BME280;46188;52.324;8.032;2023-04-22T11:13:40;99524.78;;;21.17;53.03
60345;BME280;46188;52.324;8.032;2023-04-22T11:16:07;99521.34;;;21.51;53.18
60345;BME280;46188;52.324;8.032;2023-04-22T11:18:32;99515.81;;;21.73;52.09
60345;BME280;46188;52.324;8.032;2023-04-22T11:21:02;99522.81;;;21.76;49.63
60345;BME280;46188;52.324;8.032;2023-04-22T11:23:29;99529.69;;;21.82;50.31
60345;BME280;46188;52.324;8.032;2023-04-22T11:25:59;99525.25;;;21.81;49.98
60345;BME280;46188;52.324;8.032;2023-04-22T11:28:25;99524.28;;;21.64;49.87
60345;BME280;46188;52.324;8.032;2023-04-22T11:30:51;99510.41;;;21.56;49.66
60345;BME280;46188;52.324;8.032;2023-04-22T11:33:16;99499.56;;;21.40;50.99
60345;BME280;46188;52.324;8.032;2023-04-22T11:35:42;99505.38;;;21.50;51.19
60345;BME280;46188;52.324;8.032;2023-04-22T11:38:08;99503.50;;;21.87;51.30
60345;BME280;46188;52.324;8.032;2023-04-22T11:40:43;99506.56;;;22.14;51.31
60345;BME280;46188;52.324;8.032;2023-04-22T11:43:09;99504.44;;;22.38;51.25
60345;BME280;46188;52.324;8.032;2023-04-22T11:45:37;99502.44;;;22.59;49.34
60345;BME280;46188;52.324;8.032;2023-04-22T11:48:04;99500.59;;;22.60;48.36
60345;BME280;46188;52.324;8.032;2023-04-22T11:50:35;99489.84;;;22.60;49.09
60345;BME280;46188;52.324;8.032;2023-04-22T11:53:02;99484.81;;;22.54;48.22
60345;BME280;46188;52.324;8.032;2023-04-22T11:55:32;99491.16;;;22.35;47.38
60345;BME280;46188;52.324;8.032;2023-04-22T12:00:36;99480.41;;;22.53;46.76
60345;BME280;46188;52.324;8.032;2023-04-22T12:03:07;99483.50;;;22.45;46.88
60345;BME280;46188;52.324;8.032;2023-04-22T12:05:53;99479.19;;;21.90;47.33
60345;BME280;46188;52.324;8.032;2023-04-22T12:08:21;99474.09;;;22.19;47.52
60345;BME280;46188;52.324;8.032;2023-04-22T12:10:52;99480.84;;;22.10;47.97
60345;BME280;46188;52.324;8.032;2023-04-22T12:13:20;99480.84;;;22.61;47.65
60345;BME280;46188;52.324;8.032;2023-04-22T12:15:46;99469.22;;;22.60;47.49
60345;BME280;46188;52.324;8.032;2023-04-22T12:18:11;99469.31;;;22.59;47.26
60345;BME280;46188;52.324;8.032;2023-04-22T12:20:40;99459.38;;;22.77;47.41
60345;BME280;46188;52.324;8.032;2023-04-22T12:23:13;99462.84;;;23.27;46.66
60345;BME280;46188;52.324;8.032;2023-04-22T12:25:39;99457.69;;;23.54;46.38
60345;BME280;46188;52.324;8.032;2023-04-22T12:28:05;99462.25;;;23.68;43.09
60345;BME280;46188;52.324;8.032;2023-04-22T12:30:30;99456.44;;;23.75;44.27
60345;BME280;46188;52.324;8.032;2023-04-22T12:32:55;99458.50;;;23.86;43.47
60345;BME280;46188;52.324;8.032;2023-04-22T12:35:21;99457.88;;;23.81;43.91
60345;BME280;46188;52.324;8.032;2023-04-22T12:37:46;99465.25;;;23.93;43.09
60345;BME280;46188;52.324;8.032;2023-04-22T12:40:11;99457.09;;;23.79;43.57
60345;BME280;46188;52.324;8.032;2023-04-22T12:42:37;99459.69;;;24.11;43.03
60345;BME280;46188;52.324;8.032;2023-04-22T12:45:02;99464.59;;;24.04;43.67
60345;BME280;46188;52.324;8.032;2023-04-22T12:47:28;99457.38;;;23.74;44.17
60345;BME280;46188;52.324;8.032;2023-04-22T12:49:53;99457.00;;;23.97;42.47
60345;BME280;46188;52.324;8.032;2023-04-22T12:52:18;99459.13;;;23.75;43.72
60345;BME280;46188;52.324;8.032;2023-04-22T12:54:43;99455.84;;;23.24;42.77